Time;durP1;ratioP1;P1;durP2;ratioP2;P2;SDS_P1;SDS_P2;PMS_P1;PMS_P2;Temp;Humidity;BMP_temperature;BMP_pressure;BME280_temperature;BME280_humidity;BME280_pressure;Samples;Min_cycle;Max_cycle;Signal;HPM_P1;HPM_P2
2023/03/14 16:08:10;;;;;;;20.20;3.55;;;4.20;99.90;;;;;;4995376;28;20142;-94
2023/03/14 16:10:38;;;;;;;33.47;4.10;;;3.90;99.90;;;;;;5000378;28;20044;-85
2023/03/14 16:13:04;;;;;;;29.90;4.32;;;3.80;99.90;;;;;;5000651;28;20022;-88
2023/03/14 16:15:29;;;;;;;23.23;4.93;;;3.70;99.90;;;;;;4994141;28;20366;-84
2023/03/14 16:17:55;;;;;;;26.30;4.05;;;3.60;99.90;;;;;;5007860;28;20067;-88
2023/03/14 16:20:22;;;;;;;26.63;4.55;;;3.50;99.90;;;;;;4995488;28;20267;-91
2023/03/14 16:22:49;;;;;;;13.63;3.30;;;3.50;99.90;;;;;;4998428;28;20022;-86
2023/03/14 16:25:17;;;;;;;16.05;3.13;;;3.50;99.90;;;;;;5001507;28;20022;-90
2023/03/14 16:27:43;;;;;;;23.05;3.17;;;3.50;99.90;;;;;;5007777;28;20049;-87
2023/03/14 16:30:09;;;;;;;24.70;3.90;;;3.50;99.90;;;;;;5009265;28;20377;-88
2023/03/14 16:32:35;;;;;;;34.22;5.80;;;3.50;99.90;;;;;;5011112;28;20014;-82
2023/03/14 16:35:01;;;;;;;24.15;5.07;;;3.50;99.90;;;;;;4999426;28;20037;-91
2023/03/14 16:37:27;;;;;;;30.90;4.40;;;3.60;99.90;;;;;;4999659;28;20386;-87
2023/03/14 16:39:53;;;;;;;26.77;4.55;;;3.60;99.90;;;;;;5001326;28;20410;-89
2023/03/14 16:42:20;;;;;;;38.97;5.15;;;3.70;99.90;;;;;;5000653;28;20030;-88
2023/03/14 16:44:46;;;;;;;35.78;6.95;;;3.70;99.90;;;;;;4998688;28;20026;-90
2023/03/14 16:47:11;;;;;;;32.47;5.40;;;3.80;99.90;;;;;;4999451;28;20171;-87
2023/03/14 16:49:37;;;;;;;29.80;4.97;;;3.80;99.90;;;;;;5021545;28;20366;-90
2023/03/14 16:52:03;;;;;;;26.95;5.18;;;3.90;99.90;;;;;;5004777;28;20022;-90
2023/03/14 16:54:29;;;;;;;30.50;4.70;;;4.00;99.90;;;;;;5003105;28;20034;-90
2023/03/14 16:57:03;;;;;;;24.65;5.43;;;4.00;99.90;;;;;;5006026;28;20091;-89
2023/03/14 16:59:29;;;;;;;26.02;6.90;;;4.10;99.90;;;;;;5001432;28;20120;-90
2023/03/14 17:01:55;;;;;;;31.50;6.35;;;4.10;99.90;;;;;;5003724;28;20544;-90
2023/03/14 17:04:22;;;;;;;41.03;9.93;;;4.20;99.90;;;;;;5004717;28;20092;-89
2023/03/14 17:06:48;;;;;;;40.42;10.25;;;4.20;99.90;;;;;;5005821;28;20124;-89
2023/03/14 17:09:13;;;;;;;30.48;6.15;;;4.20;99.90;;;;;;5016067;28;20034;-89
2023/03/14 17:11:39;;;;;;;26.67;6.10;;;4.30;99.90;;;;;;5021726;28;20029;-91
2023/03/14 17:14:04;;;;;;;36.50;5.30;;;4.30;99.90;;;;;;5014160;28;20054;-92
2023/03/14 17:16:30;;;;;;;29.25;7.30;;;4.30;99.90;;;;;;5016276;28;20735;-91
2023/03/14 17:18:56;;;;;;;30.33;6.30;;;4.30;99.90;;;;;;5017370;28;20073;-84
2023/03/14 17:21:23;;;;;;;33.55;6.88;;;4.30;99.90;;;;;;5019539;28;20120;-90
2023/03/14 17:23:49;;;;;;;51.10;9.68;;;4.30;99.90;;;;;;5011448;28;20473;-85
2023/03/14 17:26:16;;;;;;;29.55;7.13;;;4.30;99.90;;;;;;5011496;28;20078;-87
2023/03/14 17:28:41;;;;;;;44.25;8.50;;;4.30;99.90;;;;;;5012962;28;20013;-88
2023/03/14 17:31:09;;;;;;;38.20;8.80;;;4.30;99.90;;;;;;5008135;28;20171;-87
2023/03/14 17:33:35;;;;;;;33.25;4.78;;;4.30;99.90;;;;;;5015727;28;20474;-83
2023/03/14 17:36:02;;;;;;;42.20;5.93;;;4.20;99.90;;;;;;5006400;28;20025;-90
2023/03/14 17:38:29;;;;;;;39.38;6.63;;;4.20;99.90;;;;;;5013407;28;20074;-88
2023/03/14 17:40:58;;;;;;;34.83;5.35;;;4.20;99.90;;;;;;5009457;28;20025;-94
2023/03/14 17:43:23;;;;;;;27.85;5.85;;;4.20;99.90;;;;;;5001904;28;20064;-86
2023/03/14 17:46:05;;;;;;;39.33;5.45;;;4.20;99.90;;;;;;5011849;28;20049;-88
2023/03/14 17:48:31;;;;;;;23.55;4.55;;;4.20;99.90;;;;;;5010422;28;20029;-85
2023/03/14 17:50:58;;;;;;;16.90;4.88;;;4.20;99.90;;;;;;5011078;28;20470;-81
2023/03/14 17:53:23;;;;;;;41.33;5.82;;;4.20;99.90;;;;;;5017684;28;20029;-85
2023/03/14 17:55:49;;;;;;;29.05;5.60;;;4.30;99.90;;;;;;4990948;28;20070;-86
2023/03/14 17:58:16;;;;;;;33.92;5.00;;;4.30;99.90;;;;;;5012883;28;20025;-85
2023/03/14 18:00:42;;;;;;;30.65;5.00;;;4.30;99.90;;;;;;4986112;28;20022;-87
2023/03/14 18:03:07;;;;;;;29.02;4.97;;;4.20;99.90;;;;;;5004247;28;20038;-80
2023/03/14 18:05:36;;;;;;;29.35;4.65;;;4.20;99.90;;;;;;5015828;28;20021;-85
2023/03/14 18:08:02;;;;;;;33.65;3.65;;;4.20;99.90;;;;;;5010339;28;20145;-83
2023/03/14 18:10:29;;;;;;;21.95;3.47;;;4.20;99.90;;;;;;5023138;28;20537;-89
2023/03/14 18:12:54;;;;;;;31.52;4.60;;;4.30;99.90;;;;;;5005431;28;20021;-88
2023/03/14 18:15:20;;;;;;;19.35;4.15;;;4.30;99.90;;;;;;4995460;28;20026;-87
2023/03/14 18:17:46;;;;;;;23.05;2.90;;;4.30;99.90;;;;;;5007667;28;20109;-83
2023/03/14 18:20:11;;;;;;;17.77;3.55;;;4.30;99.90;;;;;;5000226;28;20034;-91
2023/03/14 18:22:38;;;;;;;29.25;4.93;;;4.30;99.90;;;;;;5003225;28;20413;-89
2023/03/14 18:25:05;;;;;;;23.92;4.55;;;4.30;99.90;;;;;;5005116;28;20147;-89
2023/03/14 18:27:30;;;;;;;21.83;3.55;;;4.30;99.90;;;;;;5009901;28;20058;-89
2023/03/14 18:29:56;;;;;;;23.92;3.55;;;4.30;99.90;;;;;;5000020;28;20463;-90
2023/03/14 18:32:23;;;;;;;25.58;5.05;;;4.30;99.90;;;;;;5012739;28;20044;-85
2023/03/14 18:34:48;;;;;;;20.92;3.92;;;4.30;99.90;;;;;;5015893;28;20053;-84
2023/03/14 18:37:14;;;;;;;17.70;3.30;;;4.30;99.90;;;;;;5014321;28;20025;-83
2023/03/14 18:39:40;;;;;;;23.17;3.40;;;4.30;99.90;;;;;;5003424;28;20105;-84
2023/03/14 18:42:09;;;;;;;16.75;3.67;;;4.30;99.90;;;;;;5001897;28;20041;-87
2023/03/14 18:44:34;;;;;;;18.40;4.18;;;4.30;99.90;;;;;;5005752;28;20049;-84
2023/03/14 18:47:01;;;;;;;15.27;3.53;;;4.30;99.90;;;;;;5003598;28;20480;-81
2023/03/14 18:49:27;;;;;;;33.72;4.25;;;4.40;99.90;;;;;;5009742;28;20068;-87
2023/03/14 18:51:53;;;;;;;17.27;3.97;;;4.30;99.90;;;;;;5008663;28;20049;-89
2023/03/14 18:54:18;;;;;;;21.42;4.15;;;4.30;99.90;;;;;;5007640;28;20052;-89
2023/03/14 18:56:44;;;;;;;26.98;4.28;;;4.30;99.90;;;;;;5001391;28;20037;-86
2023/03/14 18:59:13;;;;;;;13.82;3.10;;;4.30;99.90;;;;;;5003691;28;20082;-85
2023/03/14 19:01:38;;;;;;;22.13;3.67;;;4.30;99.90;;;;;;5011854;28;20476;-88
2023/03/14 19:04:07;;;;;;;14.35;2.72;;;4.20;99.90;;;;;;5006988;28;20101;-89
2023/03/14 19:06:33;;;;;;;26.77;3.97;;;4.20;99.90;;;;;;5001533;28;20054;-88
2023/03/14 19:09:00;;;;;;;17.13;3.33;;;4.20;99.90;;;;;;5007299;28;20256;-84
2023/03/14 19:11:26;;;;;;;17.60;3.60;;;4.20;99.90;;;;;;5018060;28;20269;-88
2023/03/14 19:13:53;;;;;;;33.42;4.57;;;4.20;99.90;;;;;;4983795;28;20026;-88
2023/03/14 19:16:21;;;;;;;22.58;4.03;;;4.10;99.90;;;;;;5018730;28;20026;-86
2023/03/14 19:18:47;;;;;;;17.73;3.38;;;4.10;99.90;;;;;;5001878;28;20134;-86
2023/03/14 19:21:13;;;;;;;14.77;3.35;;;4.10;99.90;;;;;;4988761;28;20068;-88
2023/03/14 19:23:41;;;;;;;12.02;3.15;;;4.10;99.90;;;;;;4998351;28;20018;-87
2023/03/14 19:26:08;;;;;;;19.70;3.42;;;4.00;99.90;;;;;;5007182;28;20497;-88
2023/03/14 19:28:34;;;;;;;24.00;3.95;;;4.00;99.90;;;;;;5003308;28;20022;-85
2023/03/14 19:31:02;;;;;;;31.35;4.50;;;4.00;99.90;;;;;;5004297;28;20505;-85
2023/03/14 19:33:29;;;;;;;19.77;3.88;;;4.10;99.90;;;;;;5005872;28;20072;-90
2023/03/14 19:35:56;;;;;;;25.08;4.03;;;4.00;99.90;;;;;;5027481;28;20026;-87
2023/03/14 19:38:21;;;;;;;18.50;4.05;;;4.00;99.90;;;;;;4992195;28;20109;-84
2023/03/14 19:40:49;;;;;;;19.20;3.35;;;4.00;99.90;;;;;;5008938;28;20465;-82
2023/03/14 19:43:16;;;;;;;16.17;3.50;;;4.00;99.90;;;;;;4993767;28;20056;-81
2023/03/14 19:45:42;;;;;;;21.33;3.83;;;4.00;99.90;;;;;;5020981;28;20470;-91
2023/03/14 19:48:11;;;;;;;16.00;3.60;;;4.00;99.90;;;;;;5022491;28;20089;-85
2023/03/14 19:50:37;;;;;;;27.17;3.78;;;4.00;99.90;;;;;;5008347;28;20067;-87
2023/03/14 19:53:03;;;;;;;17.52;3.13;;;4.00;99.90;;;;;;4984609;28;20064;-86
2023/03/14 19:56:09;;;;;;;19.50;3.10;;;4.00;99.90;;;;;;5001086;28;20046;-85
2023/03/14 19:58:36;;;;;;;20.27;2.88;;;4.00;99.90;;;;;;5000939;28;20030;-86
2023/03/14 20:01:02;;;;;;;29.77;4.93;;;4.00;99.90;;;;;;5002996;28;20094;-79
2023/03/14 20:03:27;;;;;;;20.35;3.42;;;4.00;99.90;;;;;;5009195;28;20030;-85
2023/03/14 20:05:54;;;;;;;13.68;2.83;;;3.90;99.90;;;;;;4988393;28;20034;-83
2023/03/14 20:08:23;;;;;;;20.40;3.63;;;3.90;99.90;;;;;;5002462;28;20124;-84
2023/03/14 20:10:49;;;;;;;14.30;3.28;;;3.90;99.90;;;;;;5002281;28;20018;-86
2023/03/14 20:13:15;;;;;;;19.40;3.50;;;3.80;99.90;;;;;;5007967;28;20093;-83
2023/03/14 20:15:41;;;;;;;13.20;3.63;;;3.80;99.90;;;;;;5003019;28;20026;-84
2023/03/14 20:18:07;;;;;;;17.02;4.18;;;3.80;99.90;;;;;;5005733;28;20029;-82
2023/03/14 20:20:33;;;;;;;28.33;3.90;;;3.80;99.90;;;;;;5003360;28;20417;-88
2023/03/14 20:22:59;;;;;;;27.88;6.40;;;3.70;99.90;;;;;;5002662;28;20593;-87
2023/03/14 20:25:24;;;;;;;18.80;3.20;;;3.70;99.90;;;;;;4984790;28;20116;-83
2023/03/14 20:27:53;;;;;;;21.38;4.03;;;3.70;99.90;;;;;;5001222;28;20038;-81
2023/03/14 20:30:21;;;;;;;25.38;3.70;;;3.70;99.90;;;;;;5009903;28;20026;-85
2023/03/14 20:32:48;;;;;;;25.35;3.58;;;3.70;99.90;;;;;;4984076;28;20083;-86
2023/03/14 20:35:22;;;;;;;11.65;2.92;;;3.70;99.90;;;;;;5011512;28;20027;-82
2023/03/14 20:37:52;;;;;;;16.85;2.50;;;3.70;99.90;;;;;;4989241;28;20634;-79
2023/03/14 20:40:19;;;;;;;9.90;2.90;;;3.70;99.90;;;;;;4999142;28;20026;-85
2023/03/14 20:42:45;;;;;;;25.52;3.90;;;3.60;99.90;;;;;;4986939;28;20030;-82
2023/03/14 20:45:11;;;;;;;18.77;3.30;;;3.60;99.90;;;;;;5010360;28;20498;-87
2023/03/14 20:47:37;;;;;;;17.17;3.25;;;3.60;99.90;;;;;;5004301;28;20029;-85
2023/03/14 20:50:04;;;;;;;10.52;2.40;;;3.60;99.90;;;;;;5008907;28;20513;-85
2023/03/14 20:52:29;;;;;;;11.55;3.30;;;3.60;99.90;;;;;;4996529;28;20113;-80
2023/03/14 20:54:55;;;;;;;16.45;2.97;;;3.50;99.90;;;;;;5001276;28;20141;-80
2023/03/14 20:57:21;;;;;;;27.13;3.38;;;3.50;99.90;;;;;;5005754;28;20034;-84
2023/03/14 20:59:46;;;;;;;30.20;4.70;;;3.50;99.90;;;;;;5007447;28;20018;-83
2023/03/14 21:02:13;;;;;;;28.25;3.53;;;3.50;99.90;;;;;;5005402;28;20343;-82
2023/03/14 21:04:38;;;;;;;19.80;4.13;;;3.50;99.90;;;;;;5008729;28;20112;-81
2023/03/14 21:07:04;;;;;;;18.73;2.83;;;3.50;99.90;;;;;;5008021;28;20049;-84
2023/03/14 21:09:29;;;;;;;15.93;2.45;;;3.50;99.90;;;;;;5013637;28;20026;-87
2023/03/14 21:11:58;;;;;;;12.32;3.38;;;3.50;99.90;;;;;;4987894;28;20030;-91
2023/03/14 21:14:24;;;;;;;15.07;3.13;;;3.50;99.90;;;;;;4989434;28;20025;-81
2023/03/14 21:16:54;;;;;;;12.98;2.72;;;3.50;99.90;;;;;;5010962;28;20037;-82
2023/03/14 21:19:20;;;;;;;19.77;3.13;;;3.60;99.90;;;;;;5007152;28;20558;-82
2023/03/14 21:21:46;;;;;;;13.00;2.88;;;3.50;99.90;;;;;;5010022;28;20045;-85
2023/03/14 21:24:14;;;;;;;14.50;2.78;;;3.50;99.90;;;;;;5006964;28;20024;-83
2023/03/14 21:26:40;;;;;;;23.70;3.33;;;3.50;99.90;;;;;;5004027;28;20126;-85
2023/03/14 21:29:06;;;;;;;28.20;3.47;;;3.50;99.90;;;;;;5004683;28;20025;-82
2023/03/14 21:31:32;;;;;;;19.98;3.17;;;3.50;99.90;;;;;;5010465;28;20029;-81
2023/03/14 21:33:58;;;;;;;19.65;3.95;;;3.50;99.90;;;;;;5010591;28;20044;-81
2023/03/14 21:36:24;;;;;;;12.60;2.65;;;3.40;99.90;;;;;;5000086;28;20097;-82
2023/03/14 21:38:50;;;;;;;13.93;3.70;;;3.40;99.90;;;;;;5001683;28;20060;-82
2023/03/14 21:41:15;;;;;;;16.38;2.95;;;3.40;99.90;;;;;;5003212;28;20025;-84
2023/03/14 21:43:44;;;;;;;15.48;2.60;;;3.40;99.90;;;;;;5003187;28;20040;-84
2023/03/14 21:46:10;;;;;;;24.05;3.95;;;3.40;99.90;;;;;;5003273;28;20022;-80
2023/03/14 21:48:35;;;;;;;21.17;3.45;;;3.40;99.90;;;;;;5003176;28;20022;-84
2023/03/14 21:51:05;;;;;;;22.60;2.50;;;3.40;99.90;;;;;;5006422;28;20025;-82
2023/03/14 21:53:32;;;;;;;26.73;4.63;;;3.40;99.90;;;;;;5006784;28;20061;-81
2023/03/14 21:55:58;;;;;;;21.48;2.90;;;3.30;99.90;;;;;;5002637;28;20029;-81
2023/03/14 21:58:24;;;;;;;27.30;3.13;;;3.30;99.90;;;;;;5006084;28;20024;-83
2023/03/14 22:00:49;;;;;;;21.92;3.70;;;3.30;99.90;;;;;;5008300;28;20025;-81
2023/03/14 22:03:22;;;;;;;17.42;3.38;;;3.30;99.90;;;;;;5012272;28;20249;-83
2023/03/14 22:05:48;;;;;;;15.63;2.58;;;3.20;99.90;;;;;;5007138;28;20595;-82
2023/03/14 22:08:15;;;;;;;12.15;3.13;;;3.20;99.90;;;;;;4997165;28;20044;-83
2023/03/14 22:10:51;;;;;;;16.38;3.25;;;3.20;99.90;;;;;;5010353;28;20036;-81
2023/03/14 22:13:17;;;;;;;;;;;3.20;99.90;;;;;;5013594;28;20025;-89
2023/03/14 22:15:43;;;;;;;;;;;3.20;99.90;;;;;;5004498;28;19914;-81
2023/03/14 22:18:09;;;;;;;;;;;3.20;99.90;;;;;;5005665;28;19905;-82
2023/03/14 22:20:34;;;;;;;17.13;2.85;;;3.10;99.90;;;;;;5010122;28;19916;-82
2023/03/14 22:23:00;;;;;;;23.65;3.55;;;3.10;99.90;;;;;;5009633;28;20060;-83
2023/03/14 22:25:26;;;;;;;21.02;3.08;;;3.10;99.90;;;;;;5006596;28;20522;-81
2023/03/14 22:27:52;;;;;;;24.73;4.28;;;3.10;99.90;;;;;;5028181;28;20068;-82
2023/03/14 22:30:17;;;;;;;21.77;3.45;;;3.10;99.90;;;;;;5032601;28;20031;-83
2023/03/14 22:32:43;;;;;;;20.88;3.85;;;3.10;99.90;;;;;;5010016;28;20025;-83
2023/03/14 22:35:09;;;;;;;20.60;2.92;;;3.10;99.90;;;;;;5009229;28;20100;-85
2023/03/14 22:37:35;;;;;;;24.77;4.78;;;3.10;99.90;;;;;;5008678;28;20025;-84
2023/03/14 22:40:02;;;;;;;18.85;3.88;;;3.10;99.90;;;;;;5003472;28;20367;-85
2023/03/14 22:42:28;;;;;;;18.00;2.95;;;3.10;99.90;;;;;;5004382;28;20022;-86
2023/03/14 22:44:53;;;;;;;12.82;2.55;;;3.10;99.90;;;;;;5003483;28;20029;-83
2023/03/14 22:47:19;;;;;;;18.70;2.85;;;3.00;99.90;;;;;;5007811;28;20044;-79
2023/03/14 22:49:45;;;;;;;13.90;3.85;;;3.00;99.90;;;;;;5009727;28;20420;-81
2023/03/14 22:52:12;;;;;;;18.38;3.45;;;3.00;99.90;;;;;;5002318;28;20030;-89
2023/03/14 22:54:38;;;;;;;11.02;2.75;;;3.00;99.90;;;;;;5004700;28;20044;-85
2023/03/14 22:57:03;;;;;;;14.82;3.25;;;3.00;99.90;;;;;;5006234;28;20026;-83
2023/03/14 22:59:29;;;;;;;11.80;2.95;;;3.10;99.90;;;;;;5007420;28;20034;-83
2023/03/14 23:01:58;;;;;;;10.00;2.83;;;3.00;99.90;;;;;;5007233;28;20575;-80
2023/03/14 23:04:24;;;;;;;15.00;3.25;;;3.10;99.90;;;;;;5004956;28;20021;-83
2023/03/14 23:06:49;;;;;;;14.43;2.72;;;3.10;99.90;;;;;;5008117;28;20064;-83
2023/03/14 23:09:15;;;;;;;18.42;5.18;;;3.10;99.90;;;;;;5007136;28;20022;-83
2023/03/14 23:11:40;;;;;;;16.02;2.85;;;3.00;99.90;;;;;;5011537;28;20024;-87
2023/03/14 23:14:06;;;;;;;23.38;3.20;;;3.00;99.90;;;;;;5000495;28;20474;-85
2023/03/14 23:16:32;;;;;;;16.42;2.95;;;3.10;99.90;;;;;;5015352;28;20116;-80
2023/03/14 23:18:58;;;;;;;18.10;2.97;;;3.10;99.90;;;;;;5010360;28;20479;-82
2023/03/14 23:21:24;;;;;;;22.33;3.00;;;3.10;99.90;;;;;;5014016;28;20373;-80
2023/03/14 23:23:50;;;;;;;22.83;4.35;;;3.00;99.90;;;;;;5003466;28;20051;-78
2023/03/14 23:26:21;;;;;;;21.92;3.10;;;3.00;99.90;;;;;;5001717;28;20184;-80
2023/03/14 23:28:47;;;;;;;20.10;3.03;;;3.00;99.90;;;;;;5006140;28;20030;-84
2023/03/14 23:31:13;;;;;;;28.75;3.03;;;3.00;99.90;;;;;;5008322;28;20048;-83
2023/03/14 23:33:39;;;;;;;13.45;2.38;;;3.00;99.90;;;;;;4999234;28;20010;-84
2023/03/14 23:36:07;;;;;;;16.98;3.28;;;3.00;99.90;;;;;;5007342;28;20030;-83
2023/03/14 23:38:33;;;;;;;20.27;3.03;;;3.00;99.90;;;;;;5003868;28;20026;-84
2023/03/14 23:41:00;;;;;;;12.00;2.50;;;3.00;99.90;;;;;;4998464;28;20021;-78
2023/03/14 23:43:28;;;;;;;20.60;3.17;;;2.90;99.90;;;;;;4999643;28;20481;-86
2023/03/14 23:45:55;;;;;;;22.30;3.75;;;3.00;99.90;;;;;;5003846;28;20018;-84
2023/03/14 23:48:26;;;;;;;14.70;2.67;;;2.90;99.90;;;;;;5006745;28;20470;-83
2023/03/14 23:50:55;;;;;;;19.85;3.03;;;2.90;99.90;;;;;;5006911;28;20026;-82
2023/03/14 23:53:22;;;;;;;18.23;2.70;;;3.00;99.90;;;;;;5003785;28;20642;-84
2023/03/14 23:55:48;;;;;;;12.05;2.75;;;2.90;99.90;;;;;;5003922;28;20461;-82
2023/03/14 23:58:14;;;;;;;18.45;3.15;;;2.90;99.90;;;;;;5000976;28;20026;-85
